Auroraville, Wisconsin
Current Conditions -  °F | °C
As of 11:56 PM on Thursday 27 Nov 2014 (Local Time) from KY50 Reporting Station
Overcast Overcast  
Wind Chill:   Ceiling: 10000
Heat Index:   Visibility: 10mi
Dew Point: -2°   Wind: 0mph
Humidity: 83%   Direction: NA
Pressure: 30.36"   Gusts: NA
Location:  43.9938°N, 88.9686°W
Report Text: KY50 280556Z AUTO 00000KT 10SM OVC100 M17/M19 A3036 RMK AO2 TSNO 55003 T11661188 11150 21211 410441211 SLP298
Loading
Personal Weather Stations






























Interactive Weather Map New forecast layout! Learn more

10-Day Weather Forecast

Advertisements
Track Severe Weather on mobile